createdAt,value
2022-12-03T00:01:05.962Z,101053.47
2022-12-03T00:06:58.772Z,101047.91
2022-12-03T00:12:50.787Z,101040.13
2022-12-03T00:18:43.754Z,101049.84
2022-12-03T00:24:35.702Z,101048.91
2022-12-03T00:30:27.700Z,101056.84
2022-12-03T00:36:19.974Z,101037.25
2022-12-03T00:42:12.613Z,101040.66
2022-12-03T00:48:05.164Z,101043.41
2022-12-03T00:53:57.614Z,101033.81
2022-12-03T00:59:49.895Z,101028.66
2022-12-03T01:05:42.491Z,101024.97
2022-12-03T01:11:37.722Z,101033.97
2022-12-03T01:17:30.002Z,101034.88
2022-12-03T01:23:23.142Z,101037.28
2022-12-03T01:29:15.931Z,101033.91
2022-12-03T01:35:08.323Z,101028.34
2022-12-03T01:41:00.973Z,101032.16
2022-12-03T01:46:55.932Z,101030.34
2022-12-03T01:52:48.234Z,101027.59
2022-12-03T01:58:42.352Z,101023.19
2022-12-03T02:04:34.672Z,101018.94
2022-12-03T02:10:31.652Z,101013.38
2022-12-03T02:16:24.232Z,101011.59
2022-12-03T02:22:50.843Z,101014.41
2022-12-03T02:28:43.034Z,101014.50
2022-12-03T02:34:35.816Z,101018.25
2022-12-03T02:40:29.262Z,101019.38
2022-12-03T02:46:21.912Z,101016.75
2022-12-03T02:52:13.783Z,101000.91
2022-12-03T02:58:06.931Z,100998.84
2022-12-03T03:03:59.522Z,100998.53
2022-12-03T03:09:52.622Z,101009.41
2022-12-03T03:15:45.503Z,100996.94
2022-12-03T03:21:38.852Z,100993.94
2022-12-03T03:27:31.343Z,100987.34
2022-12-03T03:33:23.941Z,100989.22
2022-12-03T03:39:16.242Z,100981.00
2022-12-03T03:45:09.142Z,100991.38
2022-12-03T03:51:03.831Z,100966.44
2022-12-03T03:56:56.402Z,100965.56
2022-12-03T04:02:49.334Z,100962.28
2022-12-03T04:08:41.439Z,100964.19
2022-12-03T04:14:34.205Z,100960.72
2022-12-03T04:20:26.264Z,100960.91
2022-12-03T04:26:36.802Z,100959.66
2022-12-03T04:32:47.835Z,100968.78
2022-12-03T04:38:39.932Z,100964.31
2022-12-03T04:44:38.681Z,100963.94
2022-12-03T04:50:31.194Z,100962.75
2022-12-03T04:56:23.369Z,100964.81
2022-12-03T05:02:15.459Z,100970.41
2022-12-03T05:08:08.411Z,100964.81
2022-12-03T05:14:00.901Z,100959.66
2022-12-03T05:20:12.939Z,100956.88
2022-12-03T05:26:05.250Z,100953.09
2022-12-03T05:31:59.800Z,100950.94
2022-12-03T05:37:52.500Z,100954.53
2022-12-03T05:43:44.511Z,100957.06
2022-12-03T05:49:36.331Z,100959.13
2022-12-03T05:55:28.606Z,100950.53
2022-12-03T06:01:20.391Z,100953.19
2022-12-03T06:07:14.174Z,100956.00
2022-12-03T06:13:06.498Z,100961.72
2022-12-03T06:18:58.321Z,100966.22
2022-12-03T06:24:50.730Z,100972.06
2022-12-03T06:30:43.615Z,100966.38
2022-12-03T06:36:35.421Z,100958.44
2022-12-03T06:42:27.442Z,100964.88
2022-12-03T06:48:19.687Z,100953.19
2022-12-03T06:54:11.220Z,100964.19
2022-12-03T07:00:06.635Z,100968.53
2022-12-03T07:05:58.674Z,100958.59
2022-12-03T07:11:50.400Z,100951.56
2022-12-03T07:17:42.685Z,100963.09
2022-12-03T07:23:34.750Z,100957.28
2022-12-03T07:29:26.863Z,100950.16
2022-12-03T07:35:18.449Z,100952.44
2022-12-03T07:41:10.781Z,100953.88
2022-12-03T07:47:03.027Z,100959.91
2022-12-03T07:52:56.393Z,100957.84
2022-12-03T07:58:48.685Z,100952.59
2022-12-03T08:04:40.569Z,100952.03
2022-12-03T08:10:33.020Z,100945.84
2022-12-03T08:16:26.392Z,100946.69
2022-12-03T08:22:18.860Z,100939.53
2022-12-03T08:28:26.805Z,100939.81
2022-12-03T08:34:25.230Z,100926.00
2022-12-03T08:40:24.888Z,100916.38
2022-12-03T08:46:19.698Z,100911.91
2022-12-03T08:52:21.173Z,100903.97
2022-12-03T08:58:23.333Z,100929.03
2022-12-03T09:04:32.250Z,100931.53
2022-12-03T09:10:24.590Z,100919.59
2022-12-03T09:16:17.174Z,100921.50
2022-12-03T09:22:10.061Z,100916.75
2022-12-03T09:28:02.331Z,100911.41
2022-12-03T09:33:55.050Z,100910.44
2022-12-03T09:39:47.268Z,100917.31
2022-12-03T09:45:40.081Z,100915.56
2022-12-03T09:51:36.134Z,100919.19
2022-12-03T09:57:28.433Z,100913.09
2022-12-03T10:03:29.647Z,100918.66
2022-12-03T10:09:28.356Z,100915.59
2022-12-03T10:15:23.564Z,100921.44
2022-12-03T10:21:24.441Z,100911.06
2022-12-03T10:27:22.990Z,100912.31
2022-12-03T10:33:18.804Z,100899.91
2022-12-03T10:39:17.004Z,100893.72
2022-12-03T10:45:15.230Z,100888.25
2022-12-03T10:51:16.340Z,100883.31
2022-12-03T10:57:09.792Z,100878.63
2022-12-03T11:03:02.112Z,100872.13
2022-12-03T11:08:58.689Z,100868.06
2022-12-03T11:14:57.903Z,100867.94
2022-12-03T11:21:06.250Z,100860.19
2022-12-03T11:27:04.252Z,100840.63
2022-12-03T11:33:06.689Z,100843.28
2022-12-03T11:38:59.431Z,100837.00
2022-12-03T11:45:06.983Z,100840.34
2022-12-03T11:51:00.344Z,100837.13
2022-12-03T11:56:53.530Z,100833.75
2022-12-03T12:02:46.519Z,100832.47
2022-12-03T12:08:41.982Z,100834.53
2022-12-03T12:14:34.512Z,100833.72
2022-12-03T12:20:31.779Z,100831.66
2022-12-03T12:26:24.292Z,100813.50
2022-12-03T12:32:19.053Z,100808.63
2022-12-03T12:38:21.541Z,100813.88
2022-12-03T12:44:14.802Z,100806.31
2022-12-03T12:50:12.266Z,100802.06
2022-12-03T12:56:26.593Z,100809.44
2022-12-03T13:02:42.298Z,100808.06
2022-12-03T13:08:49.547Z,100817.00
2022-12-03T13:14:41.869Z,100807.44
2022-12-03T13:20:37.071Z,100799.94
2022-12-03T13:26:41.603Z,100813.59
2022-12-03T13:32:39.311Z,100799.13
2022-12-03T13:38:31.883Z,100807.03
2022-12-03T13:44:24.953Z,100799.81
2022-12-03T13:50:40.752Z,100798.06
2022-12-03T13:56:36.810Z,100800.41
2022-12-03T14:02:28.928Z,100798.44
2022-12-03T14:08:23.439Z,100804.22
2022-12-03T14:14:16.192Z,100795.13
2022-12-03T14:20:09.468Z,100793.63
2022-12-03T14:26:02.082Z,100805.81
2022-12-03T14:31:54.889Z,100793.28
2022-12-03T14:37:47.991Z,100788.56
2022-12-03T14:43:41.202Z,100784.84
2022-12-03T14:49:33.960Z,100784.91
2022-12-03T14:55:26.030Z,100780.13
2022-12-03T15:01:18.628Z,100794.59
2022-12-03T15:07:10.761Z,100801.03
2022-12-03T15:13:03.005Z,100794.69
2022-12-03T15:18:55.310Z,100802.00
2022-12-03T15:24:47.740Z,100800.66
2022-12-03T15:30:39.770Z,100808.63
2022-12-03T15:36:32.762Z,100809.75
2022-12-03T15:42:24.872Z,100810.44
2022-12-03T15:48:17.030Z,100798.00
2022-12-03T15:54:14.112Z,100801.53
2022-12-03T16:00:08.530Z,100798.50
2022-12-03T16:06:07.681Z,100801.69
2022-12-03T16:12:00.602Z,100791.81
2022-12-03T16:17:53.042Z,100797.47
2022-12-03T16:23:45.253Z,100792.34
2022-12-03T16:29:38.211Z,100777.22
2022-12-03T16:35:30.419Z,100782.13
2022-12-03T16:41:24.574Z,100774.25
2022-12-03T16:47:20.244Z,100775.56
2022-12-03T16:53:16.416Z,100775.91
2022-12-03T16:59:10.311Z,100776.50
2022-12-03T17:05:05.923Z,100784.19
2022-12-03T17:11:00.189Z,100776.06
2022-12-03T17:16:54.616Z,100773.53
2022-12-03T17:22:50.520Z,100761.47
2022-12-03T17:28:43.638Z,100758.09
2022-12-03T17:34:38.941Z,100761.34
2022-12-03T17:40:32.780Z,100763.13
2022-12-03T17:46:25.271Z,100761.78
2022-12-03T17:52:17.464Z,100743.47
2022-12-03T17:58:11.999Z,100743.16
2022-12-03T18:04:07.588Z,100738.25
2022-12-03T18:10:00.253Z,100740.16
2022-12-03T18:15:53.669Z,100738.31
2022-12-03T18:21:46.640Z,100738.25
2022-12-03T18:27:39.230Z,100738.97
2022-12-03T18:33:31.311Z,100735.97
2022-12-03T18:39:35.382Z,100732.81
2022-12-03T18:45:27.750Z,100736.28
2022-12-03T18:51:24.390Z,100739.19
2022-12-03T18:57:16.954Z,100734.47
2022-12-03T19:03:10.404Z,100741.97
2022-12-03T19:09:02.622Z,100735.16
2022-12-03T19:14:55.775Z,100718.56
2022-12-03T19:20:49.122Z,100726.69
2022-12-03T19:26:41.379Z,100738.16
2022-12-03T19:32:35.739Z,100735.00
2022-12-03T19:38:30.125Z,100729.28
2022-12-03T19:44:23.176Z,100740.78
2022-12-03T19:50:23.006Z,100738.97
2022-12-03T19:56:21.627Z,100736.13
2022-12-03T20:02:15.104Z,100742.03
2022-12-03T20:08:08.707Z,100737.63
2022-12-03T20:14:08.562Z,100754.63
2022-12-03T20:20:01.987Z,100754.81
2022-12-03T20:25:57.279Z,100756.28
2022-12-03T20:31:54.484Z,100751.72
2022-12-03T20:37:48.263Z,100745.88
2022-12-03T20:43:45.882Z,100744.38
2022-12-03T20:49:40.505Z,100728.09
2022-12-03T20:55:32.575Z,100716.81
2022-12-03T21:01:28.064Z,100720.75
2022-12-03T21:07:22.170Z,100713.78
2022-12-03T21:13:17.602Z,100723.41
2022-12-03T21:19:10.504Z,100722.34
2022-12-03T21:25:04.977Z,100723.91
2022-12-03T21:31:05.356Z,100718.56
2022-12-03T21:36:58.070Z,100734.16
2022-12-03T21:42:51.139Z,100732.56
2022-12-03T21:48:46.705Z,100724.47
2022-12-03T21:54:38.990Z,100720.06
2022-12-03T22:00:32.170Z,100722.28
2022-12-03T22:06:25.168Z,100727.72
2022-12-03T22:12:19.310Z,100721.16
2022-12-03T22:18:12.382Z,100729.44
2022-12-03T22:24:05.726Z,100719.03
2022-12-03T22:29:58.352Z,100707.63
2022-12-03T22:35:58.670Z,100704.38
2022-12-03T22:41:50.710Z,100697.31
2022-12-03T22:47:42.961Z,100694.69
2022-12-03T22:53:35.013Z,100686.06
2022-12-03T22:59:27.132Z,100680.94
2022-12-03T23:05:19.092Z,100693.44
2022-12-03T23:11:11.344Z,100686.50
2022-12-03T23:17:04.960Z,100675.63
2022-12-03T23:22:57.290Z,100667.28
2022-12-03T23:28:50.320Z,100679.50
2022-12-03T23:34:42.997Z,100677.06
2022-12-03T23:40:35.082Z,100661.53
2022-12-03T23:46:27.844Z,100640.06
2022-12-03T23:52:19.911Z,100634.88
2022-12-03T23:58:12.551Z,100644.63
